Blue Oak Ranch Reserve, California Weather observations

Data are for 10 minute period ending at time listed.
 Day   Time   Solar   Ave.   Ave.  Ave.  Vector  Max.   Baro.   Total    
  of    of     Rad.   Air    Rel.  Wind   Wind   Wind  Press.  Precip.   
Year   Day            Temp.  Hum.  Speed  Dir.   Gust                    
2015   (PST)  Kw/m2    F      %     mph   deg.    mph    mb.     in.     
-------------------------------------------------------------------------
  62    4:00   0.00   35.5    94    1.3   288     2.4   946.7    0.00 
  62    4:10   0.00   35.1    94    0.7   290     1.9   946.7    0.00 
  62    4:20   0.00   35.2    94    1.0   305     2.9   946.7    0.00 
  62    4:30   0.00   34.8    94    1.8    57     3.2   946.8    0.00 
  62    4:40   0.00   35.1    95    0.7    62     2.3   946.8    0.00 
  62    4:50   0.00   35.0    94    0.4   280     1.1   946.8    0.00 
  62    5:00   0.00   35.0    94    0.1   294     0.8   946.7    0.00 
  62    5:10   0.00   34.9    94    2.7   286     3.7   946.8    0.00 
  62    5:20   0.00   34.5    94    1.2   313     2.6   946.9    0.00 
  62    5:30   0.00   34.8    94    0.1    82     0.8   946.9    0.00 
  62    5:40   0.00   34.9    94    0.5   267     1.3   946.9    0.00 
  62    5:50   0.00   34.7    94    0.2   276     0.9   946.9    0.00 
  62    6:00   0.00   34.3    94    0.3    38     1.0   946.9    0.00 
  62    6:10   0.00   35.0    94    0.5   292     1.6   946.9    0.00 
  62    6:20   0.00   34.3    94    1.2   296     2.7   947.0    0.00 
  62    6:30   0.01   34.4    95    0.3    49     1.2   947.0    0.00 
  62    6:40   0.01   34.5    95    0.5    61     1.4   947.1    0.00 
  62    6:50   0.01   34.6    95    0.2   253     0.9   947.2    0.00 
  62    7:00   0.02   34.8    94    0.0   315     0.5   947.3    0.00 
  62    7:10   0.03   34.8    94    0.9   294     2.2   947.3    0.00 
  62    7:20   0.03   35.0    95    0.4   311     1.3   947.5    0.00 
  62    7:30   0.07   35.9    94    0.9    75     2.1   947.7    0.00 
  62    7:40   0.15   37.6    94    0.6    76     1.9   947.8    0.00 
  62    7:50   0.18   40.2    90    0.6    70     2.5   947.9    0.00 
  62    8:00   0.22   42.9    85    0.6    40     1.6   948.1    0.00 
  62    8:10   0.25   45.7    78    0.0    53     0.5   948.3    0.00 
  62    8:20   0.28   49.6    71    0.2   140     0.9   948.5    0.00 
  62    8:30   0.31   50.8    66    0.5   205     1.5   948.6    0.00 
  62    8:40   0.35   52.3    65    1.9   249     5.2   948.6    0.00 
  62    8:50   0.38   52.1    66    2.9   254     4.6   948.7    0.00 
  62    9:00   0.41   51.5    67    4.3   286     6.6   948.7    0.00 
  62    9:10   0.44   51.6    67    5.3   281     7.8   948.6    0.00 
  62    9:20   0.46   51.6    67    5.3   278     7.7   948.6    0.00 
  62    9:30   0.49   51.6    68    5.5   279     7.8   948.5    0.00 
  62    9:40   0.51   51.6    68    6.2   292     8.3   948.4    0.00 
  62    9:50   0.54   51.8    68    6.1   283     8.7   948.4    0.00 
  62   10:00   0.57   53.1    66    5.1   272     7.9   948.4    0.00 
  62   10:10   0.59   52.8    68    6.2   280    10.2   948.3    0.00 
  62   10:20   0.61   53.7    66    5.1   270     8.8   948.3    0.00 
  62   10:30   0.63   54.6    65    5.2   256     8.4   948.3    0.00 
  62   10:40   0.65   54.2    67    5.4   232     8.6   948.3    0.00 
  62   10:50   0.67   54.5    66    5.9   254    11.0   948.3    0.00 
  62   11:00   0.69   54.1    67    6.3   243    10.3   948.3    0.00 
  62   11:10   0.71   54.1    68    7.5   237    11.8   948.3    0.00 
  62   11:20   0.73   54.2    68    6.6   237    10.2   948.3    0.00 
  62   11:30   0.72   54.2    68    7.9   224    12.2   948.3    0.00 
  62   11:40   0.77   54.7    68    6.9   226    12.2   948.2    0.00 
  62   11:50   0.74   55.6    66    6.7   246    12.6   948.1    0.00 
  62   12:00   0.82   55.4    64    7.1   278    11.0   948.1    0.00 
  62   12:10   0.63   55.2    63    8.0   285    13.0   948.0    0.00 
  62   12:20   0.58   55.1    62    8.2   295    12.9   948.0    0.00 
  62   12:30   0.85   55.6    60    7.6   290    11.8   947.9    0.00 
  62   12:40   0.77   56.4    57    9.2   293    14.5   947.8    0.00 
  62   12:50   0.68   56.3    57    9.5   288    14.0   947.7    0.00 
  62   13:00   0.48   55.7    57    9.2   288    15.0   947.6    0.00 
  62   13:10   0.75   56.3    56   10.1   289    13.9   947.5    0.00 
  62   13:20   0.75   56.9    56   10.0   286    15.9   947.3    0.00 
  62   13:30   0.75   56.8    55    9.9   289    16.7   947.3    0.00 
  62   13:40   0.65   56.5    54   10.7   286    15.0   947.3    0.00 
  62   13:50   0.73   56.9    53   10.8   285    16.4   947.2    0.00 
  62   14:00   0.34   56.1    53    9.7   287    15.7   947.1    0.00 
  62   14:10   0.62   56.6    52   11.8   284    17.2   947.0    0.00 
  62   14:20   0.53   56.6    52    9.8   288    15.9   947.0    0.00 
  62   14:30   0.49   56.4    53   11.7   290    18.6   947.0    0.00 
  62   14:40   0.31   56.3    53   10.1   292    16.4   946.9    0.00 
  62   14:50   0.53   56.0    53    9.7   283    15.2   946.7    0.00 
  62   15:00   0.51   57.0    52   10.0   280    16.4   946.7    0.00 
  62   15:10   0.52   57.2    53    8.1   285    14.0   946.6    0.00 
  62   15:20   0.50   57.5    54    9.8   275    15.1   946.6    0.00 
  62   15:30   0.47   57.3    54   10.3   284    17.0   946.5    0.00 
  62   15:40   0.44   57.5    54    8.3   292    15.3   946.4    0.00 
  62   15:50   0.41   57.1    59   10.9   290    15.0   946.4    0.00 
  62   16:00   0.38   56.8    59   10.3   286    16.9   946.3    0.00 
  62   16:10   0.35   56.5    60   10.7   290    15.6   946.2    0.00 
  62   16:20   0.32   56.4    59   10.8   287    14.5   946.1    0.00 
  62   16:30   0.29   55.9    59    9.5   292    14.6   946.1    0.00 
  62   16:40   0.33   56.3    57    9.3   310    13.2   946.1    0.00 
  62   16:50   0.30   56.2    58    6.6   310    11.2   946.1    0.00 
  62   17:00   0.17   55.8    58    7.7   308    12.1   946.1    0.00 
  62   17:10   0.10   54.6    60    8.3   289    11.4   946.1    0.00 
  62   17:20   0.06   53.8    61    6.8   306    10.5   946.2    0.00 
  62   17:30   0.07   53.4    61    6.0   312     9.6   946.2    0.00 
  62   17:40   0.06   53.1    64    5.7   307     8.8   946.2    0.00 
  62   17:50   0.04   52.2    67    4.5   328     7.3   946.2    0.00 
  62   18:00   0.02   51.8    67    3.8   333     6.2   946.4    0.00 
  62   18:10   0.01   50.5    71    2.8     4     5.8   946.5    0.00 
  62   18:20   0.00   50.3    71    3.2    25     6.7   946.6    0.00 
  62   18:30   0.00   49.6    72    2.8    36     5.2   946.7    0.00 
  62   18:40   0.00   48.1    75    1.8    22     2.9   946.9    0.00 
  62   18:50   0.00   47.9    72    3.0    25     4.2   947.0    0.00 
  62   19:00   0.00   47.4    73    3.3    38     5.5   947.1    0.00 
  62   19:10   0.00   47.1    72    3.9    44     5.3   947.1    0.00 
  62   19:20   0.00   46.2    74    3.4    34     5.1   947.2    0.00 
  62   19:30   0.00   45.2    79    2.0     6     3.9   947.3    0.00 
  62   19:40   0.00   44.1    82    1.0   334     2.1   947.3    0.00 
  62   19:50   0.00   43.5    82    1.8   312     3.9   947.5    0.00 
  62   20:00   0.00   42.8    83    1.6   353     3.8   947.7    0.00 
  62   20:10   0.00   42.5    84    0.8   297     2.6   947.8    0.00 
  62   20:20   0.00   42.2    84    0.6    66     2.0   947.8    0.00 
  62   20:30   0.00   42.1    84    0.2   276     1.5   947.8    0.00 
  62   20:40   0.00   41.6    84    0.5   123     1.9   947.8    0.00 
  62   20:50   0.00   40.9    86    1.6   305     2.9   947.9    0.00 
  62   21:00   0.00   40.5    87    0.2    39     1.3   947.9    0.00 
  62   21:10   0.00   40.6    88    0.8    90     1.9   948.0    0.00 
  62   21:20   0.00   40.9    87    0.0     0     0.0   948.0    0.00 
  62   21:30   0.00   40.7    88    1.0    80     1.8   948.1    0.00 
  62   21:40   0.00   40.6    88    0.2   291     1.4   948.2    0.00 
  62   21:50   0.00   40.2    88    0.5   288     1.7   948.2    0.00 
  62   22:00   0.00   39.8    89    0.0   292     0.5   948.3    0.00 
  62   22:10   0.00   39.6    89    0.5    58     1.6   948.3    0.00 
  62   22:20   0.00   39.3    90    1.3   284     2.2   948.3    0.00 
  62   22:30   0.00   39.2    91    0.3    39     1.2   948.3    0.00 
  62   22:40   0.00   39.4    91    0.8   300     2.6   948.3    0.00 
  62   22:50   0.00   38.8    91    1.3   287     3.1   948.4    0.00 
  62   23:00   0.00   38.5    91    0.3    52     1.5   948.4    0.00 
  62   23:10   0.00   38.6    92    1.7    45     2.7   948.4    0.00 
  62   23:20   0.00   38.4    92    1.7   290     2.9   948.4    0.00 
  62   23:30   0.00   38.3    92    0.6   298     1.8   948.4    0.00 
  62   23:40   0.00   38.5    93    1.0   300     2.2   948.4    0.00 
  62   23:50   0.00   38.6    93    0.2   294     1.8   948.4    0.00 
  63    0:00   0.00   38.5    92    0.2    56     1.2   948.5    0.00 
  63    0:10   0.00   38.0    92    1.0    65     2.3   948.5    0.00 
  63    0:20   0.00   37.7    91    0.4   339     2.6   948.5    0.00 
  63    0:30   0.00   37.6    92    1.2   281     2.0   948.5    0.00 
  63    0:40   0.00   37.4    92    0.8    50     1.6   948.5    0.00 
  63    0:50   0.00   37.2    90    0.1    63     0.9   948.6    0.00 
  63    1:00   0.00   37.0    89    0.7   296     2.6   948.7    0.00 
  63    1:10   0.00   36.5    90    0.8   308     1.8   948.8    0.00 
  63    1:20   0.00   36.5    90    0.0     0     0.0   948.8    0.00 
  63    1:30   0.00   37.0    88    0.4   321     2.1   948.9    0.00 
  63    1:40   0.00   36.9    87    0.2   296     0.9   948.9    0.00 
  63    1:50   0.00   37.1    86    0.3   298     1.5   948.9    0.00 
  63    2:00   0.00   37.3    85    0.0     0     0.0   948.9    0.00 
  63    2:10   0.00   36.8    86    0.7   296     2.2   948.9    0.00 
  63    2:20   0.00   37.0    85    1.3   281     2.6   948.9    0.00 
  63    2:30   0.00   37.6    83    1.5   297     2.9   948.8    0.00 
  63    2:40   0.00   38.0    82    0.9   321     1.8   948.6    0.00 
  63    2:50   0.00   36.6    85    2.1   296     2.8   948.6    0.00 
  63    3:00   0.00   36.3    88    1.2   314     2.6   948.6    0.00 
  63    3:10   0.00   36.9    87    0.0     0     0.0   948.5    0.00 
  63    3:20   0.00   38.0    86    0.2   347     1.0   948.5    0.00 
  63    3:30   0.00   37.6    84    0.0   304     1.0   948.4    0.00 
  63    3:40   0.00   37.0    86    1.0   306     2.0   948.5    0.00 
  63    3:50   0.00   37.1    87    0.1   294     0.8   948.5    0.00 

Return to Blue Oak Ranch Reserve graphs page.


Western Regional Climate Center,wrcc@dri.edu